Time;durP1;ratioP1;P1;durP2;ratioP2;P2;SDS_P1;SDS_P2;PMS_P1;PMS_P2;Temp;Humidity;BMP_temperature;BMP_pressure;BME280_temperature;BME280_humidity;BME280_pressure;Samples;Min_cycle;Max_cycle;Signal;HPM_P1;HPM_P2
2021/12/08 00:01:21;;;;;;;15.02;4.90;;;2.60;99.90;;;;;;6158585;23;20036;-83
2021/12/08 00:03:52;;;;;;;10.10;3.95;;;2.60;99.90;;;;;;6185828;23;20028;-84
2021/12/08 00:06:18;;;;;;;9.50;4.80;;;2.60;99.90;;;;;;6183220;23;20483;-84
2021/12/08 00:08:59;;;;;;;8.32;3.85;;;2.60;99.90;;;;;;6158353;23;20041;-84
2021/12/08 00:14:10;;;;;;;10.98;4.00;;;2.60;99.90;;;;;;6183311;23;20025;-83
2021/12/08 00:16:36;;;;;;;12.25;3.92;;;2.60;99.90;;;;;;6182672;23;20024;-84
2021/12/08 00:19:05;;;;;;;10.10;4.68;;;2.60;99.90;;;;;;6183408;23;20025;-84
2021/12/08 00:21:32;;;;;;;14.13;5.45;;;2.60;99.90;;;;;;6208310;23;20021;-84
2021/12/08 00:23:58;;;;;;;10.50;4.63;;;2.60;99.90;;;;;;6183851;23;20036;-85
2021/12/08 00:26:23;;;;;;;13.10;5.30;;;2.50;99.90;;;;;;6161137;23;20052;-84
2021/12/08 00:28:52;;;;;;;15.20;4.45;;;2.60;99.90;;;;;;6212538;23;20024;-85
2021/12/08 00:31:21;;;;;;;16.60;4.93;;;2.50;99.90;;;;;;6184224;23;20457;-83
2021/12/08 00:33:48;;;;;;;13.45;5.75;;;2.60;99.90;;;;;;6183698;23;20100;-84
2021/12/08 00:36:27;;;;;;;15.70;5.93;;;2.50;99.90;;;;;;6183391;23;20122;-86
2021/12/08 00:38:53;;;;;;;12.18;4.78;;;2.50;99.90;;;;;;6158778;23;20410;-86
2021/12/08 00:41:23;;;;;;;11.80;5.47;;;2.50;99.90;;;;;;6183342;23;20104;-87
2021/12/08 00:43:51;;;;;;;9.93;5.32;;;2.60;99.90;;;;;;6183180;23;20056;-85
2021/12/08 00:46:16;;;;;;;14.82;6.07;;;2.60;99.90;;;;;;6183282;23;20028;-86
2021/12/08 00:48:48;;;;;;;12.80;6.30;;;2.60;99.90;;;;;;6183308;23;20025;-85
2021/12/08 00:51:14;;;;;;;12.38;4.43;;;2.60;99.90;;;;;;6183044;23;20029;-84
2021/12/08 00:53:48;;;;;;;14.88;5.43;;;2.60;99.90;;;;;;6183506;23;20032;-85
2021/12/08 00:56:14;;;;;;;13.70;6.13;;;2.60;99.90;;;;;;6158291;23;20563;-84
2021/12/08 00:58:41;;;;;;;15.70;5.65;;;2.60;99.90;;;;;;6183766;23;20072;-84
2021/12/08 01:01:15;;;;;;;13.15;4.97;;;2.70;99.90;;;;;;6182800;23;20029;-85
2021/12/08 01:03:41;;;;;;;16.20;7.93;;;2.60;99.90;;;;;;6158553;23;20095;-86
2021/12/08 01:06:07;;;;;;;17.98;6.70;;;2.70;99.90;;;;;;6158569;23;20064;-85
2021/12/08 01:08:34;;;;;;;12.35;5.28;;;2.70;99.90;;;;;;6185035;23;20021;-84
2021/12/08 01:11:09;;;;;;;16.10;5.80;;;2.80;99.90;;;;;;6187997;23;20064;-81
2021/12/08 01:13:35;;;;;;;16.85;6.85;;;2.80;99.90;;;;;;6186334;23;20029;-83
2021/12/08 01:16:02;;;;;;;16.23;5.80;;;2.80;99.90;;;;;;6182828;23;20025;-83
2021/12/08 01:18:30;;;;;;;16.60;5.72;;;2.90;99.90;;;;;;6183348;23;20025;-84
2021/12/08 01:20:59;;;;;;;14.07;5.60;;;2.90;99.90;;;;;;6183032;23;20028;-84
2021/12/08 01:23:26;;;;;;;19.33;5.90;;;2.90;99.90;;;;;;6183057;23;20033;-86
2021/12/08 01:25:54;;;;;;;13.27;6.43;;;2.90;99.90;;;;;;6182744;23;20051;-82
2021/12/08 01:28:22;;;;;;;15.40;7.32;;;3.00;99.90;;;;;;6183572;23;20068;-84
2021/12/08 01:30:49;;;;;;;15.77;5.85;;;3.00;99.90;;;;;;6158886;23;20356;-83
2021/12/08 01:33:16;;;;;;;11.48;5.35;;;3.00;99.90;;;;;;6158329;23;20025;-82
2021/12/08 01:35:42;;;;;;;14.75;5.18;;;3.10;99.90;;;;;;6183256;23;20032;-81
2021/12/08 01:38:09;;;;;;;16.23;5.72;;;3.10;99.90;;;;;;6182936;23;20033;-83
2021/12/08 01:40:35;;;;;;;13.80;5.38;;;3.20;99.90;;;;;;6181205;23;20025;-82
2021/12/08 01:43:03;;;;;;;12.43;5.30;;;3.20;99.90;;;;;;6158038;23;20453;-83
2021/12/08 01:48:19;;;;;;;12.60;5.70;;;3.10;99.90;;;;;;6182740;23;20032;-83
2021/12/08 01:50:48;;;;;;;16.40;5.82;;;3.10;99.90;;;;;;6207769;23;20029;-85
2021/12/08 01:53:15;;;;;;;17.80;7.35;;;3.10;99.90;;;;;;6184459;23;20024;-83
2021/12/08 01:55:44;;;;;;;14.43;5.03;;;3.20;99.90;;;;;;6189205;23;20323;-85
2021/12/08 01:58:11;;;;;;;12.80;5.07;;;3.20;99.90;;;;;;6184219;23;20017;-82
2021/12/08 02:01:04;;;;;;;11.75;5.65;;;3.20;99.90;;;;;;6182709;23;20152;-81
2021/12/08 02:03:30;;;;;;;11.50;6.00;;;3.30;99.90;;;;;;6175779;23;20457;-84
2021/12/08 02:05:58;;;;;;;13.57;5.85;;;3.30;99.90;;;;;;6183487;23;20031;-83
2021/12/08 02:08:26;;;;;;;14.93;6.25;;;3.30;99.90;;;;;;6183944;23;20125;-83
2021/12/08 02:10:53;;;;;;;10.43;6.28;;;3.30;99.90;;;;;;6183434;23;20025;-83
2021/12/08 02:13:19;;;;;;;12.25;5.40;;;3.30;99.90;;;;;;6182621;23;20029;-82
2021/12/08 02:15:46;;;;;;;15.07;6.25;;;3.30;99.90;;;;;;6157807;23;20025;-84
2021/12/08 02:18:15;;;;;;;9.82;6.03;;;3.40;99.90;;;;;;6157143;23;20021;-83
2021/12/08 02:20:47;;;;;;;15.65;5.90;;;3.40;99.90;;;;;;6182249;23;20408;-84
2021/12/08 02:23:13;;;;;;;15.65;6.80;;;3.50;99.90;;;;;;6182777;23;20359;-82
2021/12/08 02:25:40;;;;;;;13.95;6.45;;;3.40;99.90;;;;;;6157387;23;20119;-83
2021/12/08 02:28:10;;;;;;;12.43;7.00;;;3.40;99.90;;;;;;6182854;23;20028;-82
2021/12/08 02:30:46;;;;;;;15.63;6.60;;;3.50;99.90;;;;;;6188972;23;20340;-82
2021/12/08 02:50:15;;;;;;;15.40;6.85;;;3.70;99.90;;;;;;6184628;23;20025;-83
2021/12/08 02:52:40;;;;;;;14.50;6.40;;;3.60;99.90;;;;;;6158941;23;20021;-85
2021/12/08 02:55:08;;;;;;;18.30;6.90;;;3.70;99.90;;;;;;6184282;23;20457;-84
2021/12/08 02:57:52;;;;;;;18.15;6.70;;;3.70;99.90;;;;;;6186165;23;20039;-83
2021/12/08 03:00:26;;;;;;;16.05;7.63;;;3.70;99.90;;;;;;6184538;23;20444;-86
2021/12/08 03:02:59;;;;;;;19.00;7.50;;;3.70;99.90;;;;;;6184453;23;20325;-84
2021/12/08 03:05:26;;;;;;;13.85;6.85;;;3.70;99.90;;;;;;6184029;23;20025;-83
2021/12/08 03:07:53;;;;;;;12.85;7.88;;;3.80;99.90;;;;;;6184533;23;20025;-83
2021/12/08 03:10:23;;;;;;;11.32;7.10;;;3.80;99.90;;;;;;6183912;23;20452;-82
2021/12/08 03:12:50;;;;;;;13.07;8.52;;;3.80;99.90;;;;;;6184806;23;20032;-82
2021/12/08 03:15:16;;;;;;;12.40;8.63;;;3.80;99.90;;;;;;6165494;23;20431;-84
2021/12/08 03:17:43;;;;;;;16.35;8.63;;;3.80;99.90;;;;;;6183842;23;20025;-84
2021/12/08 03:20:14;;;;;;;15.43;9.38;;;3.80;99.90;;;;;;6156026;23;20028;-82
2021/12/08 03:22:44;;;;;;;11.93;8.68;;;3.80;99.90;;;;;;6186546;23;20381;-83
2021/12/08 03:25:15;;;;;;;19.10;9.18;;;3.90;99.90;;;;;;6186495;23;20349;-83
2021/12/08 03:28:03;;;;;;;13.98;8.75;;;3.90;99.90;;;;;;6183865;23;20021;-85
2021/12/08 03:30:39;;;;;;;16.15;9.20;;;3.80;99.90;;;;;;6183963;23;20023;-84
2021/12/08 03:33:09;;;;;;;18.77;9.70;;;3.90;99.90;;;;;;6158807;23;20036;-84
2021/12/08 03:35:43;;;;;;;18.75;11.43;;;3.90;99.90;;;;;;6183926;23;20092;-86
2021/12/08 03:38:12;;;;;;;15.65;10.68;;;3.90;99.90;;;;;;6183933;23;20060;-83
2021/12/08 03:40:41;;;;;;;16.98;10.18;;;3.90;99.90;;;;;;6159512;23;20017;-83
2021/12/08 03:43:07;;;;;;;15.40;10.55;;;3.90;99.90;;;;;;6183774;23;20029;-83
2021/12/08 03:45:40;;;;;;;16.52;11.15;;;3.90;99.90;;;;;;6159600;23;20021;-86
2021/12/08 03:48:13;;;;;;;14.85;10.10;;;4.00;99.90;;;;;;6185987;23;20025;-84
2021/12/08 03:50:42;;;;;;;17.13;10.93;;;4.00;99.90;;;;;;6159591;23;20044;-83
2021/12/08 03:53:12;;;;;;;18.25;11.73;;;4.00;99.90;;;;;;6186740;23;20330;-84
2021/12/08 03:55:40;;;;;;;17.20;11.55;;;4.00;99.90;;;;;;6189396;23;20032;-83
2021/12/08 03:58:06;;;;;;;18.35;12.68;;;4.00;99.90;;;;;;6190177;23;20033;-85
2021/12/08 04:00:32;;;;;;;21.90;11.82;;;4.00;99.90;;;;;;6187951;23;20028;-83
2021/12/08 04:03:03;;;;;;;19.58;13.00;;;4.00;99.90;;;;;;6159525;23;20057;-84
2021/12/08 04:05:43;;;;;;;20.35;12.95;;;4.00;99.90;;;;;;6183564;23;20075;-83
2021/12/08 04:08:18;;;;;;;24.73;12.88;;;4.00;99.90;;;;;;6159467;23;20107;-84
2021/12/08 04:10:54;;;;;;;24.00;13.70;;;4.10;99.90;;;;;;6183947;23;20035;-84
2021/12/08 04:13:29;;;;;;;24.95;13.88;;;4.10;99.90;;;;;;6159168;23;20017;-83
2021/12/08 04:15:56;;;;;;;21.60;14.07;;;4.10;99.90;;;;;;6208933;23;20021;-83
2021/12/08 04:18:22;;;;;;;25.25;14.63;;;4.10;99.90;;;;;;6183162;23;20013;-83
2021/12/08 04:20:52;;;;;;;24.63;13.88;;;4.10;99.90;;;;;;6181734;23;20039;-83
2021/12/08 04:23:21;;;;;;;24.27;14.82;;;4.10;99.90;;;;;;6183908;23;20044;-83
2021/12/08 04:25:51;;;;;;;25.23;15.15;;;4.10;99.90;;;;;;6163031;23;20082;-83
2021/12/08 04:28:23;;;;;;;27.02;14.93;;;4.10;99.90;;;;;;6163866;23;20028;-86
2021/12/08 04:30:58;;;;;;;23.00;14.82;;;4.20;99.90;;;;;;6213058;23;20104;-82
2021/12/08 04:33:30;;;;;;;23.45;16.10;;;4.20;99.90;;;;;;6188555;23;20110;-82
2021/12/08 04:35:57;;;;;;;25.10;16.25;;;4.20;99.90;;;;;;6191770;23;20025;-84
2021/12/08 04:38:32;;;;;;;24.27;15.30;;;4.20;99.90;;;;;;6170056;23;20024;-83
2021/12/08 04:41:04;;;;;;;22.48;15.20;;;4.20;99.90;;;;;;6187315;23;20491;-81
2021/12/08 04:43:53;;;;;;;21.48;14.48;;;4.20;99.90;;;;;;6187987;23;20021;-81
2021/12/08 04:52:30;;;;;;;25.60;16.20;;;4.30;99.90;;;;;;6188018;23;20020;-81
2021/12/08 05:06:23;;;;;;;24.25;16.17;;;4.40;99.90;;;;;;6188049;23;20028;-82
2021/12/08 05:08:58;;;;;;;23.25;15.80;;;4.40;99.90;;;;;;6187996;23;20021;-82
2021/12/08 05:11:36;;;;;;;25.50;16.52;;;4.40;99.90;;;;;;6188192;23;20031;-82
2021/12/08 05:14:17;;;;;;;27.33;18.95;;;4.40;99.90;;;;;;6187893;23;20024;-84
2021/12/08 05:16:47;;;;;;;28.65;16.27;;;4.40;99.90;;;;;;6191542;23;20535;-86
2021/12/08 05:19:17;;;;;;;25.48;16.67;;;4.40;99.90;;;;;;6216827;22;20031;-84
2021/12/08 05:22:14;;;;;;;24.20;16.75;;;4.40;99.90;;;;;;6187731;23;20048;-83
2021/12/08 05:24:46;;;;;;;26.60;16.55;;;4.50;99.90;;;;;;6186419;23;20463;-83
2021/12/08 05:27:25;;;;;;;28.10;16.48;;;4.50;99.90;;;;;;6210052;23;20482;-84
2021/12/08 05:30:22;;;;;;;25.85;17.05;;;4.50;99.90;;;;;;6186803;23;20059;-84
2021/12/08 05:32:49;;;;;;;28.75;16.83;;;4.50;99.90;;;;;;6160789;23;20060;-84
2021/12/08 05:35:22;;;;;;;24.80;15.55;;;4.50;99.90;;;;;;6163490;23;20024;-83
2021/12/08 05:37:50;;;;;;;25.75;16.38;;;4.50;99.90;;;;;;6162406;23;20106;-83
2021/12/08 05:40:26;;;;;;;32.17;15.70;;;4.50;99.90;;;;;;6163387;23;20032;-84
2021/12/08 05:42:52;;;;;;;23.50;14.52;;;4.50;99.90;;;;;;6187482;23;20352;-83
2021/12/08 05:45:20;;;;;;;26.58;16.05;;;4.50;99.90;;;;;;6212946;23;20137;-85
2021/12/08 05:47:49;;;;;;;21.58;15.10;;;4.50;99.90;;;;;;6188025;23;20031;-83
2021/12/08 05:50:29;;;;;;;28.17;15.40;;;4.60;99.90;;;;;;6187752;23;20029;-83
2021/12/08 05:52:56;;;;;;;27.35;14.75;;;4.60;99.90;;;;;;6213021;23;20020;-84
2021/12/08 05:55:22;;;;;;;27.42;14.73;;;4.70;99.90;;;;;;6162952;23;20024;-83
2021/12/08 05:57:49;;;;;;;22.90;13.93;;;4.70;99.90;;;;;;6190536;23;20024;-85
2021/12/08 06:00:34;;;;;;;27.27;13.68;;;4.70;99.90;;;;;;6165511;23;20035;-86
2021/12/08 06:03:03;;;;;;;27.00;14.35;;;4.80;99.90;;;;;;6163369;23;20059;-83
2021/12/08 06:05:30;;;;;;;23.80;13.23;;;4.80;99.90;;;;;;6214452;23;20456;-83
2021/12/08 06:07:57;;;;;;;26.45;12.85;;;4.80;99.90;;;;;;6188085;23;20024;-83
2021/12/08 06:10:29;;;;;;;24.77;13.73;;;4.80;99.90;;;;;;6187412;23;20024;-84
2021/12/08 06:12:57;;;;;;;21.40;11.68;;;4.80;99.90;;;;;;6187791;23;20035;-84
2021/12/08 06:15:23;;;;;;;20.20;11.98;;;4.80;99.90;;;;;;6187844;23;20526;-84
2021/12/08 06:17:49;;;;;;;20.27;11.68;;;4.80;99.90;;;;;;6214694;23;20028;-84
2021/12/08 06:20:19;;;;;;;19.10;11.63;;;4.80;99.90;;;;;;6170941;23;20120;-83
2021/12/08 06:22:48;;;;;;;19.50;10.93;;;4.80;99.90;;;;;;6157403;23;20029;-84
2021/12/08 06:25:17;;;;;;;20.17;11.02;;;4.70;99.90;;;;;;6157489;23;20024;-84
2021/12/08 06:27:44;;;;;;;18.20;10.90;;;4.70;99.90;;;;;;6157562;23;20033;-83
2021/12/08 06:30:13;;;;;;;20.50;12.60;;;4.70;99.90;;;;;;6184806;23;20021;-84
2021/12/08 06:32:39;;;;;;;22.13;11.55;;;4.70;99.90;;;;;;6187633;23;20036;-83
2021/12/08 06:35:11;;;;;;;23.30;10.90;;;4.70;99.90;;;;;;6187639;23;20021;-84
2021/12/08 06:37:40;;;;;;;20.55;12.02;;;4.70;99.90;;;;;;6184807;23;20025;-86
2021/12/08 06:40:16;;;;;;;25.98;11.60;;;4.70;99.90;;;;;;6133199;23;20029;-84
2021/12/08 06:42:46;;;;;;;20.83;12.48;;;4.70;99.90;;;;;;6157912;23;20443;-84
2021/12/08 06:45:17;;;;;;;21.05;11.63;;;4.70;99.90;;;;;;6184843;23;20045;-84
2021/12/08 06:47:44;;;;;;;24.63;12.45;;;4.70;99.90;;;;;;6157432;23;20029;-83
2021/12/08 06:50:29;;;;;;;18.92;10.70;;;4.70;99.90;;;;;;6133152;23;20108;-84
2021/12/08 06:52:56;;;;;;;18.13;10.75;;;4.70;99.90;;;;;;6157824;23;20067;-84
2021/12/08 06:55:28;;;;;;;21.45;10.85;;;4.80;99.90;;;;;;6133075;23;20076;-85
2021/12/08 06:57:59;;;;;;;20.35;11.77;;;4.80;99.90;;;;;;6157683;23;20029;-84
2021/12/08 07:00:36;;;;;;;24.67;11.13;;;4.80;99.90;;;;;;6156949;23;20338;-84
2021/12/08 07:08:25;;;;;;;19.73;11.25;;;4.70;99.90;;;;;;6157676;23;20456;-84
2021/12/08 07:10:56;;;;;;;17.67;10.48;;;4.70;99.90;;;;;;6183605;23;20040;-84
2021/12/08 07:13:25;;;;;;;20.25;9.57;;;4.70;99.90;;;;;;6162900;23;20100;-84
2021/12/08 07:16:06;;;;;;;18.55;9.77;;;4.70;99.90;;;;;;6159790;23;20021;-84
2021/12/08 07:18:49;;;;;;;17.88;10.38;;;4.60;99.90;;;;;;6157515;23;20059;-84
2021/12/08 07:21:26;;;;;;;16.63;9.40;;;4.60;99.90;;;;;;6186723;23;20460;-84
2021/12/08 07:24:04;;;;;;;21.00;11.20;;;4.60;99.90;;;;;;6187173;23;20075;-84
2021/12/08 07:26:33;;;;;;;16.75;10.43;;;4.60;99.90;;;;;;6215635;23;20024;-84
2021/12/08 07:29:02;;;;;;;21.25;10.07;;;4.60;99.90;;;;;;6164357;23;20292;-83
2021/12/08 07:31:36;;;;;;;20.90;10.05;;;4.70;99.90;;;;;;6188985;23;20031;-84
2021/12/08 07:34:07;;;;;;;24.67;10.27;;;4.70;99.90;;;;;;6164345;23;20031;-84
2021/12/08 07:36:39;;;;;;;23.83;10.43;;;4.60;99.90;;;;;;6189058;23;20020;-83
2021/12/08 07:39:17;;;;;;;19.90;9.52;;;4.70;99.90;;;;;;6189350;23;20479;-85
2021/12/08 07:41:49;;;;;;;17.90;9.63;;;4.70;99.90;;;;;;6139884;23;20465;-84
2021/12/08 07:44:16;;;;;;;19.35;9.43;;;4.70;99.90;;;;;;6188630;23;20075;-84
2021/12/08 07:47:09;;;;;;;15.73;8.73;;;4.70;99.90;;;;;;6188890;23;20028;-84
2021/12/08 07:49:45;;;;;;;23.00;9.88;;;4.70;99.90;;;;;;6189168;23;20028;-84
2021/12/08 07:52:24;;;;;;;19.10;8.95;;;4.70;99.90;;;;;;6191779;23;20032;-86
2021/12/08 07:54:51;;;;;;;18.35;8.20;;;4.60;99.90;;;;;;6164875;23;20100;-84
2021/12/08 07:57:28;;;;;;;21.35;9.63;;;4.60;99.90;;;;;;6188811;23;20027;-85
2021/12/08 08:00:01;;;;;;;13.20;7.45;;;4.60;99.90;;;;;;6188639;23;20082;-84
2021/12/08 08:02:29;;;;;;;16.88;7.15;;;4.60;99.90;;;;;;6188976;23;20028;-84
2021/12/08 08:04:58;;;;;;;18.02;7.97;;;4.60;99.90;;;;;;6214222;23;20486;-85
2021/12/08 08:07:26;;;;;;;16.35;7.90;;;4.60;99.90;;;;;;6189090;23;20024;-84
2021/12/08 08:10:00;;;;;;;17.02;6.78;;;4.60;99.90;;;;;;6188465;23;20028;-85
2021/12/08 08:12:32;;;;;;;14.80;6.78;;;4.50;99.90;;;;;;6215703;23;20039;-84
2021/12/08 08:15:04;;;;;;;14.00;7.10;;;4.60;99.90;;;;;;6188696;23;20103;-84
2021/12/08 08:17:38;;;;;;;17.50;7.70;;;4.50;99.90;;;;;;6188576;23;20078;-83
2021/12/08 08:20:11;;;;;;;17.00;7.28;;;4.50;99.90;;;;;;6158937;23;20056;-84
2021/12/08 08:22:40;;;;;;;15.60;6.25;;;4.60;99.90;;;;;;6160876;23;20021;-84
2021/12/08 08:25:10;;;;;;;12.15;6.45;;;4.60;99.90;;;;;;6134511;23;20025;-85
2021/12/08 08:27:38;;;;;;;15.25;6.90;;;4.70;99.90;;;;;;6184894;23;20040;-83
2021/12/08 08:30:09;;;;;;;14.43;7.38;;;4.70;99.90;;;;;;6160757;23;20032;-84
2021/12/08 08:32:40;;;;;;;14.32;6.47;;;4.70;99.90;;;;;;6165089;23;20095;-84
2021/12/08 08:35:22;;;;;;;11.02;5.50;;;4.70;99.90;;;;;;6159469;23;20029;-85
2021/12/08 08:37:50;;;;;;;13.50;5.65;;;4.70;99.90;;;;;;6133124;23;20033;-84
2021/12/08 08:40:26;;;;;;;13.55;6.03;;;4.70;99.90;;;;;;6158831;23;20469;-84
2021/12/08 08:42:58;;;;;;;10.15;4.85;;;4.70;99.90;;;;;;6185670;23;20052;-86
2021/12/08 08:45:38;;;;;;;15.77;5.93;;;4.70;99.90;;;;;;6183851;23;20356;-84
2021/12/08 08:48:12;;;;;;;11.30;4.80;;;4.60;99.90;;;;;;6158784;23;20032;-84
2021/12/08 08:50:41;;;;;;;13.32;4.47;;;4.60;99.90;;;;;;6158817;23;20414;-83
2021/12/08 08:53:09;;;;;;;10.98;4.35;;;4.60;99.90;;;;;;6157890;23;20509;-84
2021/12/08 08:55:41;;;;;;;13.73;4.63;;;4.60;99.90;;;;;;6133854;23;20091;-85
2021/12/08 08:58:09;;;;;;;13.10;4.10;;;4.60;99.90;;;;;;6159278;23;20025;-85
2021/12/08 09:00:43;;;;;;;14.38;3.90;;;4.60;99.90;;;;;;6134294;23;20025;-83
2021/12/08 09:03:23;;;;;;;9.23;3.63;;;4.60;99.90;;;;;;6098191;23;20033;-85
2021/12/08 09:06:13;;;;;;;10.63;4.53;;;4.60;99.90;;;;;;6122752;23;20134;-84
2021/12/08 09:08:40;;;;;;;8.80;3.47;;;4.60;99.90;;;;;;6123088;23;20568;-85
2021/12/08 09:11:15;;;;;;;12.95;3.50;;;4.60;99.90;;;;;;6101939;23;20022;-86
2021/12/08 09:13:59;;;;;;;10.93;3.92;;;4.60;99.90;;;;;;6097842;23;20022;-85
2021/12/08 09:16:43;;;;;;;17.33;5.10;;;4.60;99.90;;;;;;6098512;23;20109;-85
2021/12/08 09:19:14;;;;;;;17.75;3.90;;;4.50;99.90;;;;;;6098247;23;20025;-83
2021/12/08 09:21:55;;;;;;;14.77;3.47;;;4.50;99.90;;;;;;6074787;23;20100;-85
2021/12/08 09:24:40;;;;;;;9.00;3.03;;;4.60;99.90;;;;;;6098151;23;20032;-84
2021/12/08 09:27:09;;;;;;;15.73;3.90;;;4.60;99.90;;;;;;6098043;23;20025;-85
2021/12/08 09:29:48;;;;;;;11.23;2.80;;;4.60;99.90;;;;;;6098007;23;20097;-84
2021/12/08 09:32:19;;;;;;;12.13;2.75;;;4.60;99.90;;;;;;6098324;23;20241;-83
2021/12/08 09:34:58;;;;;;;10.35;3.03;;;4.70;99.90;;;;;;6143488;23;20048;-84
2021/12/08 09:37:29;;;;;;;10.80;3.10;;;4.60;99.90;;;;;;6159101;23;20017;-84
2021/12/08 09:40:26;;;;;;;11.13;3.00;;;4.70;99.90;;;;;;6185231;23;20044;-84
2021/12/08 09:42:57;;;;;;;13.43;3.28;;;4.70;99.90;;;;;;6132206;23;20017;-85
2021/12/08 09:45:48;;;;;;;13.18;2.60;;;4.80;99.90;;;;;;6157907;23;20087;-86
2021/12/08 09:48:15;;;;;;;10.48;2.97;;;4.90;99.90;;;;;;6158265;23;20122;-85
2021/12/08 09:50:42;;;;;;;11.45;3.40;;;5.10;99.90;;;;;;6158694;23;20020;-84
2021/12/08 09:53:09;;;;;;;13.55;3.95;;;5.50;99.90;;;;;;6163516;23;20032;-87
2021/12/08 09:55:36;;;;;;;10.45;2.72;;;5.80;99.90;;;;;;6160154;23;20029;-85
2021/12/08 09:58:05;;;;;;;8.50;3.10;;;6.00;99.90;;;;;;6133423;23;20021;-85
2021/12/08 10:00:41;;;;;;;9.18;2.35;;;6.00;99.90;;;;;;6158517;23;20021;-85
2021/12/08 10:03:08;;;;;;;8.27;2.88;;;6.00;99.90;;;;;;6157996;23;20021;-85
2021/12/08 10:05:36;;;;;;;9.82;3.47;;;5.90;99.90;;;;;;6157786;23;20460;-84
2021/12/08 10:08:04;;;;;;;10.57;2.97;;;5.80;99.90;;;;;;6184706;23;20021;-85
2021/12/08 10:10:36;;;;;;;8.88;2.83;;;5.70;99.90;;;;;;6157908;23;20025;-84
2021/12/08 10:13:02;;;;;;;10.50;2.80;;;5.70;99.90;;;;;;6158142;23;20104;-85
2021/12/08 10:15:29;;;;;;;14.00;3.67;;;5.60;99.90;;;;;;6157939;23;20396;-84
2021/12/08 10:17:56;;;;;;;8.40;2.85;;;5.70;99.90;;;;;;6185847;23;20528;-85
2021/12/08 10:20:30;;;;;;;16.27;3.78;;;5.70;99.90;;;;;;6176566;23;20044;-85
2021/12/08 10:23:30;;;;;;;17.20;4.03;;;5.70;99.90;;;;;;6213985;23;20060;-85
2021/12/08 10:26:07;;;;;;;9.48;3.70;;;6.20;99.90;;;;;;6202618;23;20494;-85
2021/12/08 10:28:36;;;;;;;12.90;3.33;;;6.60;99.90;;;;;;6187499;23;20491;-86
2021/12/08 10:31:13;;;;;;;13.05;3.55;;;6.60;99.90;;;;;;6187410;23;20112;-85
2021/12/08 10:36:46;;;;;;;16.90;3.97;;;6.60;99.90;;;;;;6191500;23;20021;-85
2021/12/08 10:39:34;;;;;;;14.07;3.15;;;6.90;99.90;;;;;;6191733;23;20028;-85
2021/12/08 10:42:22;;;;;;;13.65;3.83;;;7.30;99.90;;;;;;6187657;23;20476;-85
2021/12/08 10:45:02;;;;;;;17.27;5.57;;;7.30;99.90;;;;;;6214701;23;20023;-85
2021/12/08 10:47:41;;;;;;;11.70;3.88;;;7.30;99.90;;;;;;6187695;23;20522;-85
2021/12/08 10:56:37;;;;;;;11.73;3.03;;;7.20;99.90;;;;;;6215489;23;20067;-85
2021/12/08 10:59:03;;;;;;;10.05;2.85;;;7.30;99.90;;;;;;6186756;23;20032;-84
2021/12/08 11:01:34;;;;;;;12.93;3.95;;;7.40;99.90;;;;;;6165325;23;20024;-84
2021/12/08 11:04:11;;;;;;;11.90;3.25;;;7.60;99.90;;;;;;6190559;23;20021;-84
2021/12/08 11:06:39;;;;;;;8.57;3.17;;;8.00;99.90;;;;;;6216543;23;20115;-87
2021/12/08 11:09:16;;;;;;;7.70;2.75;;;7.90;99.90;;;;;;6189386;23;20352;-84
2021/12/08 11:11:44;;;;;;;8.40;2.78;;;7.60;99.90;;;;;;6139570;23;20340;-84
2021/12/08 11:14:14;;;;;;;9.82;3.00;;;7.30;99.90;;;;;;6189366;23;20020;-84
2021/12/08 11:16:44;;;;;;;15.15;3.70;;;7.10;99.90;;;;;;6171441;23;20411;-86
2021/12/08 11:19:19;;;;;;;17.13;3.35;;;7.20;99.90;;;;;;6189725;22;20032;-84
2021/12/08 11:21:57;;;;;;;11.45;3.67;;;7.40;99.90;;;;;;6216308;23;20021;-84
2021/12/08 11:24:33;;;;;;;12.13;3.60;;;7.90;99.90;;;;;;6189625;23;20356;-84
2021/12/08 11:27:01;;;;;;;10.40;2.63;;;8.80;99.90;;;;;;6189789;23;20021;-84
2021/12/08 11:29:30;;;;;;;10.55;2.90;;;9.40;99.90;;;;;;6217067;23;20024;-85
2021/12/08 11:32:18;;;;;;;8.38;3.00;;;9.20;99.90;;;;;;6165930;23;20028;-84
2021/12/08 11:34:47;;;;;;;10.98;2.22;;;9.40;99.90;;;;;;6188841;23;20061;-85
2021/12/08 11:37:25;;;;;;;8.18;2.30;;;9.60;99.90;;;;;;6213160;23;20468;-85
2021/12/08 11:39:55;;;;;;;7.80;2.28;;;9.10;99.90;;;;;;6212895;23;20021;-84
2021/12/08 11:42:31;;;;;;;10.20;2.55;;;8.80;99.90;;;;;;6164213;23;20017;-84
2021/12/08 11:45:15;;;;;;;7.15;1.80;;;8.80;99.90;;;;;;6189669;23;20021;-85
2021/12/08 11:47:44;;;;;;;13.93;2.97;;;9.10;99.90;;;;;;6164350;23;20107;-84
2021/12/08 11:50:21;;;;;;;9.40;2.20;;;9.00;99.90;;;;;;6189669;23;20055;-84
2021/12/08 11:52:53;;;;;;;9.63;2.25;;;8.70;99.90;;;;;;6189094;23;20063;-84
2021/12/08 11:55:21;;;;;;;10.35;2.53;;;8.20;99.90;;;;;;6193723;23;20059;-84
2021/12/08 11:57:56;;;;;;;8.68;1.92;;;7.80;99.90;;;;;;6220205;23;20082;-84
2021/12/08 12:00:50;;;;;;;12.00;3.15;;;7.40;99.90;;;;;;6190964;23;20028;-85
2021/12/08 12:03:19;;;;;;;13.27;3.22;;;7.10;99.90;;;;;;6189771;23;20021;-86
2021/12/08 12:05:48;;;;;;;13.27;2.72;;;7.00;99.90;;;;;;6189385;23;20017;-85
2021/12/08 12:08:17;;;;;;;7.57;2.63;;;6.80;99.90;;;;;;6186798;23;20079;-84
2021/12/08 12:10:46;;;;;;;8.38;2.20;;;6.70;99.90;;;;;;6189155;23;20024;-84
2021/12/08 12:13:12;;;;;;;8.85;2.45;;;6.50;99.90;;;;;;6189529;23;20021;-85
2021/12/08 12:15:42;;;;;;;12.15;2.67;;;6.40;99.90;;;;;;6216452;23;20028;-84
2021/12/08 12:18:08;;;;;;;9.73;2.50;;;6.40;99.90;;;;;;6163959;23;20460;-83
2021/12/08 12:21:05;;;;;;;9.15;2.67;;;6.30;99.90;;;;;;6188585;23;20431;-84
2021/12/08 12:24:02;;;;;;;8.23;2.50;;;6.20;99.90;;;;;;6189047;23;20024;-83
2021/12/08 12:27:01;;;;;;;6.78;2.50;;;6.20;99.90;;;;;;6214349;23;20025;-85
2021/12/08 12:30:13;;;;;;;13.40;2.63;;;6.10;99.90;;;;;;6189471;23;20460;-84
2021/12/08 12:32:51;;;;;;;7.63;2.50;;;6.10;99.90;;;;;;6189624;23;20032;-84
2021/12/08 12:35:46;;;;;;;10.18;2.17;;;6.00;99.90;;;;;;6189836;23;20021;-84
2021/12/08 12:38:13;;;;;;;14.50;2.92;;;6.00;99.90;;;;;;6169637;23;20099;-85
2021/12/08 12:40:46;;;;;;;12.40;2.60;;;6.00;99.90;;;;;;6189061;23;20058;-84
2021/12/08 12:43:26;;;;;;;10.18;2.58;;;6.00;99.90;;;;;;6188628;23;20086;-85
2021/12/08 12:46:12;;;;;;;7.88;2.78;;;6.00;99.90;;;;;;6188276;23;20016;-85
2021/12/08 12:48:40;;;;;;;9.23;3.05;;;5.90;99.90;;;;;;6212780;23;20035;-84
2021/12/08 12:51:06;;;;;;;6.72;2.40;;;5.90;99.90;;;;;;6188460;23;20024;-85
2021/12/08 12:53:44;;;;;;;8.95;3.50;;;5.90;99.90;;;;;;6188247;23;20052;-84
2021/12/08 12:56:13;;;;;;;7.70;2.45;;;5.90;99.90;;;;;;6188047;23;20017;-83
2021/12/08 12:58:58;;;;;;;8.50;2.30;;;6.00;99.90;;;;;;6216308;23;20415;-82
2021/12/08 13:01:32;;;;;;;10.27;2.83;;;5.90;99.90;;;;;;6163532;23;20053;-84
2021/12/08 13:04:06;;;;;;;10.87;2.90;;;5.90;99.90;;;;;;6188346;23;20025;-83
2021/12/08 13:06:40;;;;;;;8.30;2.10;;;6.00;99.90;;;;;;6215355;23;20028;-82
2021/12/08 13:09:07;;;;;;;8.90;2.40;;;6.00;99.90;;;;;;6188132;23;20486;-83
2021/12/08 13:11:56;;;;;;;8.23;2.38;;;5.90;99.90;;;;;;6215202;23;20448;-84
2021/12/08 13:14:30;;;;;;;12.10;2.40;;;5.90;99.90;;;;;;6168722;23;20024;-83
2021/12/08 13:17:15;;;;;;;6.88;1.90;;;5.90;99.90;;;;;;6168745;23;20030;-82
2021/12/08 13:19:43;;;;;;;9.32;2.47;;;5.90;99.90;;;;;;6163010;23;20024;-83
2021/12/08 13:22:30;;;;;;;8.57;2.47;;;5.90;99.90;;;;;;6187895;23;20101;-83
2021/12/08 13:25:00;;;;;;;9.73;2.45;;;5.80;99.90;;;;;;6187740;23;20468;-82
2021/12/08 13:27:29;;;;;;;14.13;2.97;;;5.80;99.90;;;;;;6213028;23;20043;-83
2021/12/08 13:30:14;;;;;;;8.27;2.38;;;5.80;99.90;;;;;;6187847;23;20020;-82
2021/12/08 13:32:47;;;;;;;9.32;2.75;;;5.80;99.90;;;;;;6163356;23;20028;-84
2021/12/08 13:35:37;;;;;;;11.38;2.63;;;5.90;99.90;;;;;;6187705;23;20024;-83
2021/12/08 13:38:04;;;;;;;7.60;2.35;;;6.00;99.90;;;;;;6186610;23;20666;-83
2021/12/08 13:40:47;;;;;;;10.07;2.60;;;6.00;99.90;;;;;;6187983;23;20020;-83
2021/12/08 13:43:37;;;;;;;9.48;2.42;;;6.20;99.90;;;;;;6163996;23;20028;-83
2021/12/08 13:46:15;;;;;;;9.77;3.45;;;6.30;99.90;;;;;;6162310;23;20066;-83
2021/12/08 13:49:11;;;;;;;7.60;2.38;;;6.30;99.90;;;;;;6187027;23;20027;-82
2021/12/08 13:52:07;;;;;;;9.57;2.47;;;6.30;99.90;;;;;;6189930;23;20028;-83
2021/12/08 13:54:42;;;;;;;17.58;2.85;;;6.30;99.90;;;;;;6193703;23;20021;-83
2021/12/08 13:57:36;;;;;;;9.07;3.45;;;6.30;99.90;;;;;;6193871;23;20467;-83
2021/12/08 14:00:13;;;;;;;10.73;2.67;;;6.20;99.90;;;;;;6187766;23;20356;-83
2021/12/08 14:03:02;;;;;;;13.75;3.35;;;6.20;99.90;;;;;;6203275;23;20107;-83
2021/12/08 14:05:37;;;;;;;10.18;3.00;;;6.10;99.90;;;;;;6162664;23;20472;-84
2021/12/08 14:08:13;;;;;;;10.70;3.20;;;6.00;99.90;;;;;;6188144;23;20499;-83
2021/12/08 14:10:47;;;;;;;12.63;3.50;;;6.00;99.90;;;;;;6164309;23;20017;-84